createdAt,value
2022-11-21T00:02:04.260Z,16.07
2022-11-21T00:04:34.111Z,14.00
2022-11-21T00:07:03.001Z,17.20
2022-11-21T00:09:34.351Z,19.70
2022-11-21T00:12:05.385Z,18.27
2022-11-21T00:14:36.010Z,18.93
2022-11-21T00:17:05.493Z,16.73
2022-11-21T00:19:35.625Z,18.17
2022-11-21T00:22:04.917Z,18.50
2022-11-21T00:24:34.109Z,19.97
2022-11-21T00:27:03.691Z,20.70
2022-11-21T00:29:34.334Z,19.90
2022-11-21T00:32:03.120Z,21.10
2022-11-21T00:34:32.237Z,24.53
2022-11-21T00:37:01.552Z,22.63
2022-11-21T00:39:30.843Z,24.00
2022-11-21T00:42:00.109Z,23.77
2022-11-21T00:44:29.483Z,22.43
2022-11-21T00:47:00.606Z,21.90
2022-11-21T00:49:29.605Z,22.63
2022-11-21T00:51:58.472Z,21.87
2022-11-21T00:54:27.860Z,23.13
2022-11-21T00:56:57.421Z,24.23
2022-11-21T00:59:26.744Z,23.30
2022-11-21T01:01:55.979Z,23.37
2022-11-21T01:04:27.217Z,25.57
2022-11-21T01:06:56.469Z,24.50
2022-11-21T01:09:25.617Z,23.97
2022-11-21T01:11:54.749Z,23.37
2022-11-21T01:14:24.065Z,21.83
2022-11-21T01:16:53.476Z,23.30
2022-11-21T01:19:23.710Z,22.70
2022-11-21T01:21:54.941Z,23.23
2022-11-21T01:24:24.488Z,23.13
2022-11-21T01:26:54.750Z,24.97
2022-11-21T01:29:23.939Z,24.37
2022-11-21T01:31:53.001Z,23.03
2022-11-21T01:34:22.165Z,24.30
2022-11-21T01:36:51.440Z,24.87
2022-11-21T01:39:22.310Z,22.50
2022-11-21T01:41:51.776Z,22.20
2022-11-21T01:44:22.734Z,22.97
2022-11-21T01:46:52.829Z,22.07
2022-11-21T01:49:23.955Z,23.23
2022-11-21T01:52:00.175Z,22.70
2022-11-21T01:54:34.591Z,24.37
2022-11-21T01:57:08.172Z,24.87
2022-11-21T01:59:44.617Z,24.13
2022-11-21T02:02:17.347Z,23.00
2022-11-21T02:04:47.491Z,23.00
2022-11-21T02:07:18.383Z,24.33
2022-11-21T02:09:53.718Z,24.40
2022-11-21T02:12:27.247Z,22.67
2022-11-21T02:14:57.628Z,24.67
2022-11-21T02:17:28.733Z,22.73
2022-11-21T02:20:00.119Z,24.13
2022-11-21T02:22:38.899Z,24.17
2022-11-21T02:25:13.835Z,25.07
2022-11-21T02:27:43.215Z,24.20
2022-11-21T02:30:14.061Z,22.50
2022-11-21T02:32:47.149Z,22.90
2022-11-21T02:35:18.343Z,23.33
2022-11-21T02:37:49.533Z,23.57
2022-11-21T02:40:25.826Z,23.07
2022-11-21T02:43:09.341Z,21.33
2022-11-21T02:45:41.925Z,22.57
2022-11-21T02:48:11.441Z,23.23
2022-11-21T02:50:41.197Z,23.37
2022-11-21T02:53:13.005Z,21.60
2022-11-21T02:55:44.718Z,22.03
2022-11-21T02:58:14.144Z,22.23
2022-11-21T03:00:44.262Z,23.10
2022-11-21T03:03:13.323Z,24.03
2022-11-21T03:05:42.778Z,23.17
2022-11-21T03:08:12.018Z,24.17
2022-11-21T03:10:40.944Z,23.07
2022-11-21T03:13:12.526Z,24.13
2022-11-21T03:15:41.972Z,23.63
2022-11-21T03:18:10.971Z,24.70
2022-11-21T03:20:40.288Z,24.30
2022-11-21T03:23:09.685Z,26.47
2022-11-21T03:25:39.145Z,22.87
2022-11-21T03:28:07.945Z,23.10
2022-11-21T03:30:39.086Z,24.60
2022-11-21T03:33:08.326Z,23.60
2022-11-21T03:35:37.517Z,22.27
2022-11-21T03:38:07.102Z,22.13
2022-11-21T03:40:36.235Z,20.93
2022-11-21T03:43:08.351Z,20.93
2022-11-21T03:45:39.310Z,19.87
2022-11-21T03:48:08.804Z,22.67
2022-11-21T03:50:38.338Z,22.63
2022-11-21T03:53:07.564Z,21.10
2022-11-21T03:55:36.505Z,21.67
2022-11-21T03:58:05.664Z,22.70
2022-11-21T04:00:35.118Z,21.93
2022-11-21T04:03:06.005Z,21.27
2022-11-21T04:05:37.160Z,21.00
2022-11-21T04:08:06.644Z,22.73
2022-11-21T04:10:35.885Z,19.30
2022-11-21T04:13:05.759Z,20.13
2022-11-21T04:15:35.226Z,20.33
2022-11-21T04:18:06.155Z,20.20
2022-11-21T04:20:35.110Z,20.17
2022-11-21T04:23:04.215Z,18.83
2022-11-21T04:25:34.093Z,19.97
2022-11-21T04:28:04.488Z,19.20
2022-11-21T04:30:35.431Z,20.73
2022-11-21T04:33:06.688Z,20.70
2022-11-21T04:35:35.975Z,19.70
2022-11-21T04:38:05.115Z,22.17
2022-11-21T04:40:34.114Z,21.53
2022-11-21T04:43:03.068Z,20.60
2022-11-21T04:45:32.653Z,22.00
2022-11-21T04:48:01.897Z,18.90
2022-11-21T04:50:33.439Z,19.40
2022-11-21T04:53:02.712Z,20.03
2022-11-21T04:55:33.845Z,19.13
2022-11-21T04:58:02.923Z,20.03
2022-11-21T05:00:32.186Z,20.57
2022-11-21T05:03:05.864Z,20.07
2022-11-21T05:05:36.632Z,18.77
2022-11-21T05:08:06.392Z,18.77
2022-11-21T05:10:55.896Z,19.47
2022-11-21T05:13:23.927Z,19.43
2022-11-21T05:15:59.550Z,18.80
2022-11-21T05:18:29.070Z,18.77
2022-11-21T05:20:59.926Z,18.50
2022-11-21T05:23:29.157Z,17.53
2022-11-21T05:25:58.243Z,17.97
2022-11-21T05:28:27.651Z,17.90
2022-11-21T05:30:57.178Z,17.83
2022-11-21T05:33:26.834Z,17.23
2022-11-21T05:35:55.867Z,17.43
2022-11-21T05:38:27.664Z,17.40
2022-11-21T05:40:56.795Z,18.03
2022-11-21T05:43:42.914Z,17.43
2022-11-21T05:46:11.827Z,16.57
2022-11-21T05:48:41.151Z,17.37
2022-11-21T05:51:11.114Z,17.30
2022-11-21T05:53:41.649Z,17.40
2022-11-21T05:56:12.943Z,17.67
2022-11-21T05:58:43.042Z,17.77
2022-11-21T06:01:15.072Z,17.30
2022-11-21T06:03:44.043Z,16.97
2022-11-21T06:06:15.314Z,17.77
2022-11-21T06:08:47.767Z,18.77
2022-11-21T06:11:18.764Z,16.63
2022-11-21T06:13:47.939Z,15.97
2022-11-21T06:16:20.085Z,17.97
2022-11-21T06:18:56.811Z,18.20
2022-11-21T06:21:29.771Z,16.60
2022-11-21T06:24:01.395Z,18.57
2022-11-21T06:26:30.695Z,19.13
2022-11-21T06:29:02.649Z,19.60
2022-11-21T06:31:32.734Z,19.80
2022-11-21T06:34:02.233Z,20.53
2022-11-21T06:36:33.677Z,21.27
2022-11-21T06:39:06.507Z,19.13
2022-11-21T06:41:35.850Z,18.83
2022-11-21T06:44:05.306Z,18.93
2022-11-21T06:46:34.682Z,21.13
2022-11-21T06:49:04.503Z,20.33
2022-11-21T06:51:33.765Z,18.60
2022-11-21T06:54:04.787Z,20.70
2022-11-21T06:56:34.618Z,19.43
2022-11-21T06:59:04.278Z,19.20
2022-11-21T07:01:33.595Z,19.53
2022-11-21T07:04:03.083Z,20.07
2022-11-21T07:06:32.287Z,18.10
2022-11-21T07:09:31.674Z,18.63
2022-11-21T07:11:55.841Z,19.07
2022-11-21T07:14:23.478Z,19.23
2022-11-21T07:16:53.818Z,20.37
2022-11-21T07:19:23.615Z,20.50
2022-11-21T07:21:52.829Z,18.77
2022-11-21T07:24:21.943Z,19.53
2022-11-21T07:26:53.313Z,19.00
2022-11-21T07:29:24.424Z,19.63
2022-11-21T07:31:55.307Z,19.43
2022-11-21T07:34:24.674Z,14.57
2022-11-21T07:36:55.780Z,18.40
2022-11-21T07:39:27.040Z,16.90
2022-11-21T07:41:56.215Z,20.97
2022-11-21T07:44:27.061Z,18.73
2022-11-21T07:46:57.324Z,17.63
2022-11-21T07:49:26.757Z,18.23
2022-11-21T07:51:56.157Z,19.67
2022-11-21T07:54:28.780Z,17.20
2022-11-21T07:56:57.817Z,18.60
2022-11-21T07:59:28.698Z,19.13
2022-11-21T08:01:58.037Z,19.07
2022-11-21T08:04:27.582Z,19.47
2022-11-21T08:06:56.742Z,18.63
2022-11-21T08:09:35.979Z,18.43
2022-11-21T08:12:12.358Z,18.27
2022-11-21T08:14:43.513Z,16.37
2022-11-21T08:17:14.325Z,15.87
2022-11-21T08:19:44.901Z,16.00
2022-11-21T08:22:14.983Z,17.30
2022-11-21T08:24:44.375Z,16.43
2022-11-21T08:27:13.581Z,15.37
2022-11-21T08:29:44.799Z,15.77
2022-11-21T08:32:14.655Z,14.07
2022-11-21T08:34:44.312Z,13.90
2022-11-21T08:37:14.146Z,13.43
2022-11-21T08:39:43.516Z,13.37
2022-11-21T08:42:12.678Z,14.83
2022-11-21T08:44:43.538Z,14.63
2022-11-21T08:47:13.056Z,14.80
2022-11-21T08:49:42.789Z,14.67
2022-11-21T08:52:12.799Z,14.37
2022-11-21T08:54:41.893Z,15.63
2022-11-21T08:57:11.431Z,12.20
2022-11-21T08:59:43.452Z,11.00
2022-11-21T09:02:14.224Z,11.60
2022-11-21T09:04:43.570Z,13.27
2022-11-21T09:07:13.863Z,12.57
2022-11-21T09:09:43.330Z,12.13
2022-11-21T09:12:12.702Z,12.33
2022-11-21T09:14:59.084Z,12.53
2022-11-21T09:17:45.132Z,12.63
2022-11-21T09:20:14.514Z,11.90
2022-11-21T09:22:44.007Z,13.43
2022-11-21T09:25:13.358Z,12.27
2022-11-21T09:27:43.243Z,11.93
2022-11-21T09:30:13.968Z,12.33
2022-11-21T09:32:45.298Z,11.87
2022-11-21T09:35:14.898Z,11.40
2022-11-21T09:37:43.911Z,11.33
2022-11-21T09:40:17.250Z,10.70
2022-11-21T09:43:08.222Z,12.00
2022-11-21T09:45:43.185Z,11.87
2022-11-21T09:48:16.294Z,11.23
2022-11-21T09:50:53.639Z,11.10
2022-11-21T09:53:29.076Z,10.83
2022-11-21T09:56:02.313Z,10.50
2022-11-21T09:58:34.716Z,10.73
2022-11-21T10:01:04.188Z,11.00
2022-11-21T10:03:42.105Z,10.50
2022-11-21T10:06:21.151Z,10.90
2022-11-21T10:09:01.015Z,10.47
2022-11-21T10:12:03.557Z,9.07
2022-11-21T10:14:48.238Z,9.40
2022-11-21T10:17:31.708Z,12.40
2022-11-21T10:20:22.585Z,14.83
2022-11-21T10:23:07.923Z,12.77
2022-11-21T10:25:41.522Z,9.57
2022-11-21T10:28:19.865Z,8.00
2022-11-21T10:30:55.105Z,7.73
2022-11-21T10:33:32.478Z,7.33
2022-11-21T10:36:09.287Z,6.60
2022-11-21T10:38:42.936Z,6.50
2022-11-21T10:41:21.974Z,7.07
2022-11-21T10:44:15.915Z,5.67
2022-11-21T10:46:59.333Z,5.40
2022-11-21T10:49:30.824Z,6.13
2022-11-21T10:52:07.755Z,5.37
2022-11-21T10:55:11.598Z,5.20
2022-11-21T10:57:46.005Z,5.87
2022-11-21T11:00:32.448Z,5.43
2022-11-21T11:03:05.899Z,7.03
2022-11-21T11:05:37.583Z,4.73
2022-11-21T11:08:12.891Z,4.47
2022-11-21T11:10:44.240Z,5.47
2022-11-21T11:13:49.163Z,5.83
2022-11-21T11:16:22.186Z,5.37
2022-11-21T11:18:58.823Z,5.57
2022-11-21T11:21:30.281Z,5.10
2022-11-21T11:24:26.617Z,5.23
2022-11-21T11:27:00.393Z,4.87
2022-11-21T11:29:32.175Z,5.93
2022-11-21T11:32:05.030Z,5.00
2022-11-21T11:34:42.347Z,5.27
2022-11-21T11:37:15.788Z,6.33
2022-11-21T11:40:01.080Z,6.10
2022-11-21T11:43:10.244Z,5.90
2022-11-21T11:46:19.997Z,6.60
2022-11-21T11:49:17.178Z,7.97
2022-11-21T11:51:45.247Z,6.73
2022-11-21T11:54:19.906Z,7.37
2022-11-21T11:56:50.993Z,5.87
2022-11-21T11:59:24.385Z,7.43
2022-11-21T12:01:58.509Z,6.70
2022-11-21T12:04:31.454Z,6.33
2022-11-21T12:10:03.338Z,7.20
2022-11-21T12:12:41.342Z,6.77
2022-11-21T12:15:33.342Z,6.13
2022-11-21T12:18:15.022Z,5.30
2022-11-21T12:20:52.775Z,5.33
2022-11-21T12:23:25.161Z,5.57
2022-11-21T12:26:08.648Z,4.80
2022-11-21T12:28:49.668Z,7.10
2022-11-21T12:31:25.784Z,5.27
2022-11-21T12:34:15.892Z,5.47
2022-11-21T12:36:50.167Z,4.33
2022-11-21T12:39:41.654Z,4.93
2022-11-21T12:42:36.229Z,5.37
2022-11-21T12:45:31.020Z,5.67
2022-11-21T12:48:37.930Z,6.43
2022-11-21T12:52:01.132Z,6.33
2022-11-21T12:55:01.063Z,10.93
2022-11-21T12:57:42.307Z,7.77
2022-11-21T13:00:21.030Z,8.73
2022-11-21T13:03:18.048Z,9.57
2022-11-21T13:05:51.061Z,16.17
2022-11-21T13:08:25.454Z,14.57
2022-11-21T13:11:16.946Z,10.30
2022-11-21T13:13:52.582Z,15.80
2022-11-21T13:16:38.082Z,18.80
2022-11-21T13:19:24.671Z,19.93
2022-11-21T13:21:55.562Z,12.10
2022-11-21T13:24:57.960Z,10.53
2022-11-21T13:27:34.994Z,9.57
2022-11-21T13:30:27.855Z,11.23
2022-11-21T13:32:59.871Z,10.20
2022-11-21T13:36:05.981Z,9.53
2022-11-21T13:39:14.403Z,10.47
2022-11-21T13:42:23.899Z,10.87
2022-11-21T13:44:53.480Z,10.70
2022-11-21T13:48:04.260Z,11.23
2022-11-21T13:50:50.630Z,12.23
2022-11-21T13:53:58.424Z,11.50
2022-11-21T13:56:37.203Z,11.10
2022-11-21T13:59:28.971Z,10.83
2022-11-21T14:02:23.123Z,11.23
2022-11-21T14:05:22.814Z,11.10
2022-11-21T14:07:53.672Z,12.30
2022-11-21T14:10:35.123Z,12.37
2022-11-21T14:13:09.551Z,14.50
2022-11-21T14:15:47.437Z,26.43
2022-11-21T14:18:24.147Z,22.00
2022-11-21T14:21:04.864Z,19.47
2022-11-21T14:23:37.972Z,13.70
2022-11-21T14:26:16.385Z,20.40
2022-11-21T14:28:46.138Z,23.47
2022-11-21T14:31:16.433Z,23.93
2022-11-21T14:33:47.422Z,15.40
2022-11-21T14:36:22.022Z,12.83
2022-11-21T14:39:20.966Z,11.60
2022-11-21T14:41:47.142Z,13.23
2022-11-21T14:44:19.387Z,10.13
2022-11-21T14:46:49.753Z,10.93
2022-11-21T14:49:27.429Z,10.47
2022-11-21T14:52:04.978Z,10.77
2022-11-21T14:55:06.154Z,10.27
2022-11-21T14:57:39.937Z,12.03
2022-11-21T15:00:24.595Z,10.27
2022-11-21T15:03:01.634Z,11.50
2022-11-21T15:06:00.717Z,11.10
2022-11-21T15:09:18.338Z,11.53
2022-11-21T15:11:19.881Z,10.73
2022-11-21T15:14:15.404Z,10.63
2022-11-21T15:16:47.186Z,10.63
2022-11-21T15:19:22.885Z,11.00
2022-11-21T15:21:53.777Z,9.67
2022-11-21T15:24:40.561Z,11.87
2022-11-21T15:27:34.784Z,11.60
2022-11-21T15:30:30.028Z,11.03
2022-11-21T15:33:07.556Z,12.23
2022-11-21T15:36:13.156Z,12.60
2022-11-21T15:38:48.747Z,13.00
2022-11-21T15:41:30.251Z,12.10
2022-11-21T15:44:23.792Z,12.83
2022-11-21T15:46:56.422Z,13.43
2022-11-21T15:49:32.924Z,14.23
2022-11-21T15:52:17.937Z,13.90
2022-11-21T15:54:47.334Z,15.53
2022-11-21T15:59:53.765Z,15.57
2022-11-21T16:02:22.587Z,12.57
2022-11-21T16:04:51.625Z,10.77
2022-11-21T16:07:20.763Z,10.90
2022-11-21T16:09:50.486Z,13.37
2022-11-21T16:12:19.644Z,14.97
2022-11-21T16:14:49.139Z,18.13
2022-11-21T16:17:19.674Z,8.90
2022-11-21T16:19:49.545Z,10.80
2022-11-21T16:22:19.210Z,10.70
2022-11-21T16:24:52.598Z,11.37
2022-11-21T16:27:21.330Z,10.20
2022-11-21T16:29:50.864Z,9.37
2022-11-21T16:32:22.020Z,9.40
2022-11-21T16:34:52.113Z,9.90
2022-11-21T16:37:21.490Z,9.57
2022-11-21T16:39:52.872Z,9.50
2022-11-21T16:42:22.498Z,10.27
2022-11-21T16:44:53.153Z,10.13
2022-11-21T16:50:16.754Z,10.73
2022-11-21T16:52:46.533Z,10.30
2022-11-21T16:55:27.190Z,9.97
2022-11-21T16:57:59.750Z,9.73
2022-11-21T17:00:31.239Z,10.43
2022-11-21T17:03:03.827Z,10.37
2022-11-21T17:05:33.192Z,11.07
2022-11-21T17:08:03.337Z,13.90
2022-11-21T17:10:37.236Z,12.57
2022-11-21T17:13:10.037Z,19.37
2022-11-21T17:15:40.267Z,19.50
2022-11-21T17:18:12.385Z,20.83
2022-11-21T17:20:46.138Z,23.97
2022-11-21T17:23:15.881Z,25.20
2022-11-21T17:25:44.635Z,18.70
2022-11-21T17:28:14.001Z,15.70
2022-11-21T17:30:44.684Z,11.27
2022-11-21T17:33:16.056Z,11.97
2022-11-21T17:35:45.618Z,11.43
2022-11-21T17:38:15.057Z,11.47
2022-11-21T17:40:44.431Z,11.60
2022-11-21T17:43:13.876Z,11.80
2022-11-21T17:45:47.035Z,11.77
2022-11-21T17:48:19.895Z,11.77
2022-11-21T17:50:49.396Z,12.13
2022-11-21T17:53:18.839Z,13.30
2022-11-21T17:55:51.599Z,12.13
2022-11-21T17:58:21.200Z,13.20
2022-11-21T18:00:57.370Z,14.53
2022-11-21T18:03:29.106Z,16.47
2022-11-21T18:06:03.261Z,16.90
2022-11-21T18:08:33.095Z,17.13
2022-11-21T18:11:02.872Z,17.53
2022-11-21T18:13:33.443Z,15.97
2022-11-21T18:16:05.178Z,15.77
2022-11-21T18:18:37.373Z,14.63
2022-11-21T18:21:07.721Z,16.37
2022-11-21T18:23:38.033Z,13.80
2022-11-21T18:26:09.916Z,13.90
2022-11-21T18:28:39.713Z,14.87
2022-11-21T18:31:19.165Z,14.27
2022-11-21T18:33:56.821Z,18.43
2022-11-21T18:36:27.504Z,18.97
2022-11-21T18:39:04.842Z,18.37
2022-11-21T18:41:40.569Z,14.97
2022-11-21T18:44:14.603Z,13.83
2022-11-21T18:46:51.005Z,15.00
2022-11-21T18:49:23.169Z,14.90
2022-11-21T18:51:52.682Z,15.50
2022-11-21T18:54:29.427Z,14.90
2022-11-21T18:56:58.620Z,16.60
2022-11-21T18:59:28.937Z,17.57
2022-11-21T19:02:00.376Z,15.83
2022-11-21T19:04:34.138Z,17.90
2022-11-21T19:07:04.907Z,18.90
2022-11-21T19:09:36.332Z,17.67
2022-11-21T19:12:06.394Z,20.57
2022-11-21T19:14:35.452Z,19.97
2022-11-21T19:17:05.440Z,19.13
2022-11-21T19:19:37.006Z,18.97
2022-11-21T19:22:07.010Z,18.80
2022-11-21T19:24:36.114Z,18.63
2022-11-21T19:27:05.798Z,17.07
2022-11-21T19:29:35.210Z,18.20
2022-11-21T19:32:05.144Z,13.50
2022-11-21T19:34:36.781Z,14.97
2022-11-21T19:37:13.747Z,14.60
2022-11-21T19:39:43.944Z,14.73
2022-11-21T19:42:16.801Z,16.30
2022-11-21T19:44:51.248Z,14.87
2022-11-21T19:47:21.131Z,16.27
2022-11-21T19:49:54.749Z,14.63
2022-11-21T19:52:34.024Z,13.50
2022-11-21T19:55:09.354Z,15.20
2022-11-21T19:57:40.578Z,15.53
2022-11-21T20:00:23.013Z,14.47
2022-11-21T20:02:55.833Z,14.50
2022-11-21T20:05:29.102Z,14.00
2022-11-21T20:08:04.935Z,14.20
2022-11-21T20:10:38.376Z,14.77
2022-11-21T20:13:08.192Z,13.50
2022-11-21T20:15:41.131Z,15.50
2022-11-21T20:18:16.659Z,13.50
2022-11-21T20:20:48.014Z,13.57
2022-11-21T20:23:18.519Z,14.83
2022-11-21T20:25:52.714Z,14.40
2022-11-21T20:28:25.458Z,13.73
2022-11-21T20:30:54.852Z,12.67
2022-11-21T20:33:40.775Z,14.63
2022-11-21T20:36:14.819Z,14.23
2022-11-21T20:38:46.497Z,13.53
2022-11-21T20:41:20.339Z,14.37
2022-11-21T20:47:22.266Z,15.03
2022-11-21T20:49:53.686Z,15.50
2022-11-21T20:53:49.548Z,16.40
2022-11-21T20:55:17.222Z,15.40
2022-11-21T20:57:46.947Z,15.20
2022-11-21T21:00:18.364Z,16.60
2022-11-21T21:02:57.358Z,16.97
2022-11-21T21:05:27.311Z,16.80
2022-11-21T21:07:57.991Z,17.60
2022-11-21T21:10:28.193Z,18.73
2022-11-21T21:13:02.277Z,19.80
2022-11-21T21:15:34.335Z,22.47
2022-11-21T21:18:06.346Z,22.33
2022-11-21T21:20:55.417Z,22.60
2022-11-21T21:23:29.157Z,18.60
2022-11-21T21:25:58.362Z,19.13
2022-11-21T21:28:35.464Z,22.07
2022-11-21T21:31:31.534Z,20.97
2022-11-21T21:34:01.501Z,18.77
2022-11-21T21:36:49.546Z,19.47
2022-11-21T21:39:29.106Z,18.63
2022-11-21T21:41:59.048Z,18.47
2022-11-21T21:44:33.011Z,18.40
2022-11-21T21:47:03.061Z,21.20
2022-11-21T21:49:32.941Z,20.17
2022-11-21T21:52:03.944Z,18.60
2022-11-21T21:54:37.428Z,19.67
2022-11-21T21:57:10.381Z,16.97
2022-11-21T21:59:43.536Z,18.13
2022-11-21T22:02:13.993Z,16.53
2022-11-21T22:04:52.245Z,15.93
2022-11-21T22:07:22.511Z,16.40
2022-11-21T22:09:54.328Z,16.20
2022-11-21T22:12:24.285Z,17.47
2022-11-21T22:14:53.431Z,17.50
2022-11-21T22:17:22.402Z,16.27
2022-11-21T22:20:02.253Z,16.67
2022-11-21T22:22:33.746Z,14.20
2022-11-21T22:25:06.678Z,17.03
2022-11-21T22:27:37.057Z,16.40
2022-11-21T22:30:16.138Z,17.30
2022-11-21T22:32:51.562Z,16.87
2022-11-21T22:35:27.430Z,17.07
2022-11-21T22:37:57.131Z,16.37
2022-11-21T22:40:28.314Z,16.77
2022-11-21T22:42:57.846Z,16.63
2022-11-21T22:45:27.547Z,17.10
2022-11-21T22:47:57.065Z,17.07
2022-11-21T22:50:26.447Z,15.73
2022-11-21T22:52:56.099Z,14.47
2022-11-21T22:55:26.915Z,17.27
2022-11-21T22:57:56.905Z,18.20
2022-11-21T23:00:26.172Z,16.73
2022-11-21T23:02:55.655Z,16.93
2022-11-21T23:05:24.987Z,16.00
2022-11-21T23:07:54.220Z,15.97
2022-11-21T23:10:23.641Z,17.37
2022-11-21T23:12:55.204Z,17.20
2022-11-21T23:15:25.091Z,17.83
2022-11-21T23:18:00.621Z,17.90
2022-11-21T23:20:30.638Z,18.13
2022-11-21T23:23:01.425Z,17.40
2022-11-21T23:25:30.716Z,16.83
2022-11-21T23:28:01.641Z,17.63
2022-11-21T23:30:30.912Z,15.93
2022-11-21T23:33:00.563Z,18.00
2022-11-21T23:35:31.269Z,16.47
2022-11-21T23:38:01.387Z,18.03
2022-11-21T23:40:31.861Z,17.70
2022-11-21T23:43:05.424Z,17.73
2022-11-21T23:45:35.020Z,18.43
2022-11-21T23:48:04.421Z,18.70
2022-11-21T23:50:35.071Z,15.87
2022-11-21T23:53:04.467Z,18.07
2022-11-21T23:55:37.226Z,18.80
2022-11-21T23:58:12.147Z,18.37
